sensor_id;sensor_type;location;lat;lon;timestamp;pressure;altitude;pressure_sealevel;temperature;humidity
20696;BME280;10507;52.754;13.040;2023-05-12T00:01:31;100827.19;;;15.79;68.45
20696;BME280;10507;52.754;13.040;2023-05-12T00:03:59;100820.66;;;15.69;69.00
20696;BME280;10507;52.754;13.040;2023-05-12T00:06:27;100830.47;;;15.70;68.84
20696;BME280;10507;52.754;13.040;2023-05-12T00:08:55;100818.28;;;15.65;69.16
20696;BME280;10507;52.754;13.040;2023-05-12T00:11:22;100824.75;;;15.62;68.99
20696;BME280;10507;52.754;13.040;2023-05-12T00:13:50;100827.13;;;15.54;69.12
20696;BME280;10507;52.754;13.040;2023-05-12T00:16:19;100839.69;;;15.53;69.77
20696;BME280;10507;52.754;13.040;2023-05-12T00:18:48;100835.59;;;15.48;70.09
20696;BME280;10507;52.754;13.040;2023-05-12T00:21:17;100823.41;;;15.42;69.94
20696;BME280;10507;52.754;13.040;2023-05-12T00:23:45;100821.03;;;15.37;69.70
20696;BME280;10507;52.754;13.040;2023-05-12T00:26:13;100790.03;;;15.32;68.81
20696;BME280;10507;52.754;13.040;2023-05-12T00:28:42;100776.91;;;15.27;68.56
20696;BME280;10507;52.754;13.040;2023-05-12T00:31:10;100778.63;;;15.28;68.28
20696;BME280;10507;52.754;13.040;2023-05-12T00:33:38;100777.31;;;15.21;68.58
20696;BME280;10507;52.754;13.040;2023-05-12T00:36:08;100782.91;;;15.18;68.89
20696;BME280;10507;52.754;13.040;2023-05-12T00:38:36;100794.06;;;15.12;69.20
20696;BME280;10507;52.754;13.040;2023-05-12T00:41:04;100777.25;;;15.08;68.68
20696;BME280;10507;52.754;13.040;2023-05-12T00:43:31;100781.03;;;15.06;68.69
20696;BME280;10507;52.754;13.040;2023-05-12T00:46:01;100786.94;;;14.98;69.17
20696;BME280;10507;52.754;13.040;2023-05-12T00:48:31;100801.53;;;14.94;69.86
20696;BME280;10507;52.754;13.040;2023-05-12T00:51:01;100785.88;;;14.86;69.51
20696;BME280;10507;52.754;13.040;2023-05-12T00:53:31;100802.31;;;14.82;70.01
20696;BME280;10507;52.754;13.040;2023-05-12T00:56:15;100817.44;;;14.70;70.17
20696;BME280;10507;52.754;13.040;2023-05-12T00:58:44;100804.50;;;14.62;70.49
20696;BME280;10507;52.754;13.040;2023-05-12T01:01:12;100814.78;;;14.55;70.65
20696;BME280;10507;52.754;13.040;2023-05-12T01:03:40;100806.09;;;14.50;70.67
20696;BME280;10507;52.754;13.040;2023-05-12T01:06:11;100796.63;;;14.45;70.54
20696;BME280;10507;52.754;13.040;2023-05-12T01:08:41;100816.78;;;14.38;70.79
20696;BME280;10507;52.754;13.040;2023-05-12T01:11:09;100828.59;;;14.35;71.15
20696;BME280;10507;52.754;13.040;2023-05-12T01:13:36;100797.66;;;14.28;70.85
20696;BME280;10507;52.754;13.040;2023-05-12T01:16:08;100807.84;;;14.23;70.70
20696;BME280;10507;52.754;13.040;2023-05-12T01:18:36;100807.16;;;14.19;70.66
20696;BME280;10507;52.754;13.040;2023-05-12T01:21:05;100797.59;;;14.15;70.81
20696;BME280;10507;52.754;13.040;2023-05-12T01:23:35;100810.34;;;14.11;70.78
20696;BME280;10507;52.754;13.040;2023-05-12T01:26:06;100799.91;;;14.07;70.48
20696;BME280;10507;52.754;13.040;2023-05-12T01:28:35;100792.34;;;13.99;70.69
20696;BME280;10507;52.754;13.040;2023-05-12T01:31:05;100814.19;;;13.93;70.92
20696;BME280;10507;52.754;13.040;2023-05-12T01:33:34;100814.63;;;13.85;70.99
20696;BME280;10507;52.754;13.040;2023-05-12T01:36:02;100802.47;;;13.80;71.26
20696;BME280;10507;52.754;13.040;2023-05-12T01:38:30;100813.66;;;13.72;71.53
20696;BME280;10507;52.754;13.040;2023-05-12T01:40:58;100834.03;;;13.60;72.17
20696;BME280;10507;52.754;13.040;2023-05-12T01:43:27;100839.88;;;13.52;72.59
20696;BME280;10507;52.754;13.040;2023-05-12T01:45:55;100821.25;;;13.49;72.45
20696;BME280;10507;52.754;13.040;2023-05-12T01:48:26;100840.84;;;13.36;72.93
20696;BME280;10507;52.754;13.040;2023-05-12T01:50:54;100835.06;;;13.27;72.62
20696;BME280;10507;52.754;13.040;2023-05-12T01:53:22;100859.69;;;13.18;73.51
20696;BME280;10507;52.754;13.040;2023-05-12T01:55:50;100869.22;;;13.08;73.95
20696;BME280;10507;52.754;13.040;2023-05-12T01:58:18;100886.00;;;12.96;74.77
20696;BME280;10507;52.754;13.040;2023-05-12T02:00:47;100920.16;;;12.92;76.11
20696;BME280;10507;52.754;13.040;2023-05-12T02:03:15;100901.72;;;12.86;75.27
20696;BME280;10507;52.754;13.040;2023-05-12T02:05:43;100931.78;;;12.75;76.05
20696;BME280;10507;52.754;13.040;2023-05-12T02:08:10;100955.81;;;12.61;76.68
20696;BME280;10507;52.754;13.040;2023-05-12T02:10:38;100972.13;;;12.56;77.23
20696;BME280;10507;52.754;13.040;2023-05-12T02:13:06;101003.41;;;12.38;78.65
20696;BME280;10507;52.754;13.040;2023-05-12T02:15:34;101000.81;;;12.37;78.36
20696;BME280;10507;52.754;13.040;2023-05-12T02:18:03;100974.44;;;12.29;77.81
20696;BME280;10507;52.754;13.040;2023-05-12T02:20:31;100971.13;;;12.24;77.33
20696;BME280;10507;52.754;13.040;2023-05-12T02:22:59;100988.91;;;12.25;77.53
20696;BME280;10507;52.754;13.040;2023-05-12T02:25:28;101008.59;;;12.24;77.57
20696;BME280;10507;52.754;13.040;2023-05-12T02:27:56;101027.44;;;12.22;77.88
20696;BME280;10507;52.754;13.040;2023-05-12T02:30:23;101042.84;;;12.17;78.78
20696;BME280;10507;52.754;13.040;2023-05-12T02:32:51;101049.88;;;12.20;79.05
20696;BME280;10507;52.754;13.040;2023-05-12T02:35:20;101041.06;;;12.18;78.25
20696;BME280;10507;52.754;13.040;2023-05-12T02:37:48;101035.94;;;12.13;78.52
20696;BME280;10507;52.754;13.040;2023-05-12T02:40:16;101044.88;;;12.12;78.21
20696;BME280;10507;52.754;13.040;2023-05-12T02:42:44;101038.84;;;12.09;78.53
20696;BME280;10507;52.754;13.040;2023-05-12T02:45:12;101048.81;;;12.05;78.41
20696;BME280;10507;52.754;13.040;2023-05-12T02:47:40;101053.44;;;12.01;78.82
20696;BME280;10507;52.754;13.040;2023-05-12T02:50:12;101055.03;;;12.05;78.54
20696;BME280;10507;52.754;13.040;2023-05-12T02:52:41;101062.81;;;12.10;78.68
20696;BME280;10507;52.754;13.040;2023-05-12T02:55:09;101044.09;;;12.10;78.61
20696;BME280;10507;52.754;13.040;2023-05-12T02:57:37;101059.22;;;12.11;77.99
20696;BME280;10507;52.754;13.040;2023-05-12T03:00:06;101063.69;;;12.11;78.39
20696;BME280;10507;52.754;13.040;2023-05-12T03:02:34;101068.50;;;12.04;79.14
20696;BME280;10507;52.754;13.040;2023-05-12T03:05:02;101076.53;;;12.04;78.30
20696;BME280;10507;52.754;13.040;2023-05-12T03:07:30;101074.84;;;12.01;78.53
20696;BME280;10507;52.754;13.040;2023-05-12T03:10:00;101075.81;;;12.00;78.72
20696;BME280;10507;52.754;13.040;2023-05-12T03:12:28;101078.31;;;12.03;77.94
20696;BME280;10507;52.754;13.040;2023-05-12T03:14:56;101070.22;;;12.05;78.00
20696;BME280;10507;52.754;13.040;2023-05-12T03:17:23;101093.28;;;12.07;78.35
20696;BME280;10507;52.754;13.040;2023-05-12T03:19:51;101090.63;;;12.07;78.16
20696;BME280;10507;52.754;13.040;2023-05-12T03:22:19;101083.38;;;12.10;78.22
20696;BME280;10507;52.754;13.040;2023-05-12T03:24:47;101093.22;;;12.09;78.31
20696;BME280;10507;52.754;13.040;2023-05-12T03:27:16;101094.25;;;12.06;78.56
20696;BME280;10507;52.754;13.040;2023-05-12T03:29:44;101092.78;;;11.99;78.70
20696;BME280;10507;52.754;13.040;2023-05-12T03:32:12;101098.81;;;12.04;78.41
20696;BME280;10507;52.754;13.040;2023-05-12T03:34:40;101108.72;;;12.02;79.12
20696;BME280;10507;52.754;13.040;2023-05-12T03:37:08;101122.91;;;12.04;79.74
20696;BME280;10507;52.754;13.040;2023-05-12T03:39:35;101124.31;;;12.12;78.38
20696;BME280;10507;52.754;13.040;2023-05-12T03:42:04;101108.19;;;12.13;78.34
20696;BME280;10507;52.754;13.040;2023-05-12T03:44:34;101139.31;;;12.16;79.06
20696;BME280;10507;52.754;13.040;2023-05-12T03:47:01;101126.47;;;12.22;78.42
20696;BME280;10507;52.754;13.040;2023-05-12T03:49:29;101109.09;;;12.31;78.28
20696;BME280;10507;52.754;13.040;2023-05-12T03:51:57;101115.72;;;12.41;77.43
20696;BME280;10507;52.754;13.040;2023-05-12T03:54:25;101127.84;;;12.48;78.16
20696;BME280;10507;52.754;13.040;2023-05-12T03:56:53;101121.03;;;12.60;77.33
20696;BME280;10507;52.754;13.040;2023-05-12T03:59:20;101131.16;;;12.71;77.76
20696;BME280;10507;52.754;13.040;2023-05-12T04:01:51;101111.78;;;12.83;76.36
20696;BME280;10507;52.754;13.040;2023-05-12T04:04:19;101099.56;;;12.95;75.95
20696;BME280;10507;52.754;13.040;2023-05-12T04:06:47;101079.63;;;13.01;75.00
20696;BME280;10507;52.754;13.040;2023-05-12T04:09:14;101074.88;;;13.06;75.38
20696;BME280;10507;52.754;13.040;2023-05-12T04:11:42;101078.94;;;13.13;75.51
20696;BME280;10507;52.754;13.040;2023-05-12T04:14:10;101081.31;;;13.19;74.90
20696;BME280;10507;52.754;13.040;2023-05-12T04:16:38;101065.03;;;13.22;74.57
20696;BME280;10507;52.754;13.040;2023-05-12T04:19:07;101073.72;;;13.27;74.70
20696;BME280;10507;52.754;13.040;2023-05-12T04:21:35;101066.31;;;13.33;74.63
20696;BME280;10507;52.754;13.040;2023-05-12T04:24:04;101068.66;;;13.39;74.57
20696;BME280;10507;52.754;13.040;2023-05-12T04:26:32;101086.53;;;13.38;74.87
20696;BME280;10507;52.754;13.040;2023-05-12T04:28:59;101078.34;;;13.41;74.38
20696;BME280;10507;52.754;13.040;2023-05-12T04:31:27;101065.97;;;13.39;74.29
20696;BME280;10507;52.754;13.040;2023-05-12T04:33:55;101047.28;;;13.37;74.03
20696;BME280;10507;52.754;13.040;2023-05-12T04:36:24;101074.72;;;13.42;74.44
20696;BME280;10507;52.754;13.040;2023-05-12T04:38:52;101076.34;;;13.45;74.18
20696;BME280;10507;52.754;13.040;2023-05-12T04:41:21;101049.88;;;13.39;73.70
20696;BME280;10507;52.754;13.040;2023-05-12T04:43:49;101074.56;;;13.45;74.35
20696;BME280;10507;52.754;13.040;2023-05-12T04:46:19;101060.75;;;13.36;73.98
20696;BME280;10507;52.754;13.040;2023-05-12T04:48:47;101084.03;;;13.35;74.57
20696;BME280;10507;52.754;13.040;2023-05-12T04:51:15;101072.22;;;13.39;74.37
20696;BME280;10507;52.754;13.040;2023-05-12T04:53:48;101078.44;;;13.40;74.16
20696;BME280;10507;52.754;13.040;2023-05-12T04:56:16;101138.28;;;13.73;73.81
20696;BME280;10507;52.754;13.040;2023-05-12T04:58:43;101152.81;;;14.01;73.37
20696;BME280;10507;52.754;13.040;2023-05-12T05:01:11;101175.16;;;14.49;72.72
20696;BME280;10507;52.754;13.040;2023-05-12T05:03:39;101137.53;;;14.65;71.87
20696;BME280;10507;52.754;13.040;2023-05-12T05:06:07;101047.81;;;14.52;70.81
20696;BME280;10507;52.754;13.040;2023-05-12T05:08:35;101136.91;;;14.76;71.65
20696;BME280;10507;52.754;13.040;2023-05-12T05:11:04;101123.66;;;15.32;69.79
20696;BME280;10507;52.754;13.040;2023-05-12T05:13:32;101111.81;;;15.20;70.56
20696;BME280;10507;52.754;13.040;2023-05-12T05:16:00;101135.81;;;15.95;68.60
20696;BME280;10507;52.754;13.040;2023-05-12T05:18:28;101171.34;;;16.83;66.96
20696;BME280;10507;52.754;13.040;2023-05-12T05:20:56;101019.84;;;16.76;65.37
20696;BME280;10507;52.754;13.040;2023-05-12T05:23:24;101034.09;;;16.78;65.82
20696;BME280;10507;52.754;13.040;2023-05-12T05:25:52;101051.69;;;16.97;65.98
20696;BME280;10507;52.754;13.040;2023-05-12T05:28:21;101096.50;;;17.75;63.77
20696;BME280;10507;52.754;13.040;2023-05-12T05:30:54;101100.91;;;18.61;62.17
20696;BME280;10507;52.754;13.040;2023-05-12T05:33:22;101169.97;;;19.93;59.89
20696;BME280;10507;52.754;13.040;2023-05-12T05:35:50;101007.72;;;20.21;58.29
20696;BME280;10507;52.754;13.040;2023-05-12T05:38:17;100949.22;;;19.86;58.62
20696;BME280;10507;52.754;13.040;2023-05-12T05:40:45;100871.91;;;19.39;59.00
20696;BME280;10507;52.754;13.040;2023-05-12T05:43:19;100822.25;;;18.51;61.40
20696;BME280;10507;52.754;13.040;2023-05-12T05:45:49;100873.50;;;18.30;62.47
20696;BME280;10507;52.754;13.040;2023-05-12T05:48:17;100948.59;;;18.60;62.38
20696;BME280;10507;52.754;13.040;2023-05-12T05:50:44;100924.81;;;18.88;60.41
20696;BME280;10507;52.754;13.040;2023-05-12T05:53:12;100978.63;;;19.47;60.10
20696;BME280;10507;52.754;13.040;2023-05-12T05:55:42;100926.78;;;19.96;57.67
20696;BME280;10507;52.754;13.040;2023-05-12T05:58:10;100917.03;;;20.35;56.81
20696;BME280;10507;52.754;13.040;2023-05-12T06:00:38;100873.09;;;20.31;56.64
20696;BME280;10507;52.754;13.040;2023-05-12T06:03:07;100920.72;;;20.55;56.68
20696;BME280;10507;52.754;13.040;2023-05-12T06:05:35;100917.97;;;20.45;57.62
20696;BME280;10507;52.754;13.040;2023-05-12T06:08:03;100977.22;;;20.92;57.01
20696;BME280;10507;52.754;13.040;2023-05-12T06:10:34;100862.69;;;21.08;55.42
20696;BME280;10507;52.754;13.040;2023-05-12T06:13:02;101009.25;;;22.08;54.80
20696;BME280;10507;52.754;13.040;2023-05-12T06:15:29;101128.13;;;23.62;53.27
20696;BME280;10507;52.754;13.040;2023-05-12T06:17:57;101034.69;;;23.97;52.51
20696;BME280;10507;52.754;13.040;2023-05-12T06:20:27;101056.53;;;24.77;51.22
20696;BME280;10507;52.754;13.040;2023-05-12T06:22:54;100922.72;;;24.77;49.67
20696;BME280;10507;52.754;13.040;2023-05-12T06:25:22;100904.53;;;24.94;49.87
20696;BME280;10507;52.754;13.040;2023-05-12T06:27:50;100825.41;;;24.68;49.22
20696;BME280;10507;52.754;13.040;2023-05-12T06:30:18;100892.09;;;25.00;49.68
20696;BME280;10507;52.754;13.040;2023-05-12T06:32:46;100920.81;;;25.55;48.74
20696;BME280;10507;52.754;13.040;2023-05-12T06:35:14;100879.06;;;25.28;49.83
20696;BME280;10507;52.754;13.040;2023-05-12T06:37:43;100860.84;;;25.45;48.88
20696;BME280;10507;52.754;13.040;2023-05-12T06:40:15;100946.03;;;25.91;48.20
20696;BME280;10507;52.754;13.040;2023-05-12T06:42:44;100851.63;;;25.95;47.30
20696;BME280;10507;52.754;13.040;2023-05-12T06:45:11;100881.88;;;26.26;47.12
20696;BME280;10507;52.754;13.040;2023-05-12T06:47:39;100926.50;;;26.43;48.15
20696;BME280;10507;52.754;13.040;2023-05-12T06:50:08;100779.97;;;26.08;46.79
20696;BME280;10507;52.754;13.040;2023-05-12T06:52:35;100857.59;;;26.15;48.53
20696;BME280;10507;52.754;13.040;2023-05-12T06:55:05;100931.81;;;26.53;48.53
20696;BME280;10507;52.754;13.040;2023-05-12T06:57:35;100783.09;;;26.44;46.88
20696;BME280;10507;52.754;13.040;2023-05-12T07:00:04;100833.97;;;26.86;45.88
20696;BME280;10507;52.754;13.040;2023-05-12T07:02:33;100761.63;;;26.64;45.40
20696;BME280;10507;52.754;13.040;2023-05-12T07:05:00;100829.34;;;26.79;46.16
20696;BME280;10507;52.754;13.040;2023-05-12T07:07:28;100793.88;;;26.85;46.20
20696;BME280;10507;52.754;13.040;2023-05-12T07:09:56;100845.19;;;27.31;45.67
20696;BME280;10507;52.754;13.040;2023-05-12T07:12:25;100798.84;;;27.13;45.55
20696;BME280;10507;52.754;13.040;2023-05-12T07:14:53;100826.34;;;27.51;45.62
20696;BME280;10507;52.754;13.040;2023-05-12T07:17:21;100698.34;;;27.05;44.69
20696;BME280;10507;52.754;13.040;2023-05-12T07:19:49;100758.09;;;27.56;44.45
20696;BME280;10507;52.754;13.040;2023-05-12T07:22:17;100823.75;;;28.18;44.13
20696;BME280;10507;52.754;13.040;2023-05-12T07:24:47;100719.38;;;27.89;43.73
20696;BME280;10507;52.754;13.040;2023-05-12T07:27:15;100740.31;;;27.52;45.19
20696;BME280;10507;52.754;13.040;2023-05-12T07:29:44;100857.69;;;28.55;43.83
20696;BME280;10507;52.754;13.040;2023-05-12T07:32:12;100727.59;;;28.33;43.10
20696;BME280;10507;52.754;13.040;2023-05-12T07:34:40;100701.13;;;28.26;42.96
20696;BME280;10507;52.754;13.040;2023-05-12T07:37:08;100740.66;;;28.31;43.99
20696;BME280;10507;52.754;13.040;2023-05-12T07:39:38;100765.50;;;28.53;43.82
20696;BME280;10507;52.754;13.040;2023-05-12T07:42:06;100692.88;;;28.26;43.26
20696;BME280;10507;52.754;13.040;2023-05-12T07:44:35;100733.84;;;28.27;43.45
20696;BME280;10507;52.754;13.040;2023-05-12T07:47:04;100797.50;;;29.12;42.65
20696;BME280;10507;52.754;13.040;2023-05-12T07:49:32;100702.84;;;28.63;42.73
20696;BME280;10507;52.754;13.040;2023-05-12T07:52:00;100658.09;;;28.69;41.82
20696;BME280;10507;52.754;13.040;2023-05-12T07:54:28;100765.97;;;29.29;42.17
20696;BME280;10507;52.754;13.040;2023-05-12T07:56:56;100717.66;;;29.20;41.58
20696;BME280;10507;52.754;13.040;2023-05-12T07:59:24;100690.75;;;28.57;42.42
20696;BME280;10507;52.754;13.040;2023-05-12T08:01:52;100760.34;;;29.01;43.18
20696;BME280;10507;52.754;13.040;2023-05-12T08:04:21;100711.81;;;28.50;42.89
20696;BME280;10507;52.754;13.040;2023-05-12T08:06:49;100612.47;;;28.32;42.45
20696;BME280;10507;52.754;13.040;2023-05-12T08:09:17;100588.59;;;27.66;43.60
20696;BME280;10507;52.754;13.040;2023-05-12T08:11:44;100697.44;;;28.18;43.88
20696;BME280;10507;52.754;13.040;2023-05-12T08:14:16;100583.78;;;27.53;43.71
20696;BME280;10507;52.754;13.040;2023-05-12T08:16:44;100718.53;;;28.18;44.00
20696;BME280;10507;52.754;13.040;2023-05-12T08:19:13;100691.06;;;28.18;43.55
20696;BME280;10507;52.754;13.040;2023-05-12T08:21:42;100663.69;;;28.25;42.11
20696;BME280;10507;52.754;13.040;2023-05-12T08:24:11;100595.31;;;27.49;43.61
20696;BME280;10507;52.754;13.040;2023-05-12T08:26:39;100603.53;;;27.34;43.73
20696;BME280;10507;52.754;13.040;2023-05-12T08:29:08;100598.44;;;26.93;44.10
20696;BME280;10507;52.754;13.040;2023-05-12T08:31:39;100581.81;;;27.09;42.91
20696;BME280;10507;52.754;13.040;2023-05-12T08:34:07;100508.19;;;26.91;42.99
20696;BME280;10507;52.754;13.040;2023-05-12T08:36:36;100505.31;;;26.47;44.13
20696;BME280;10507;52.754;13.040;2023-05-12T08:39:07;100464.63;;;26.21;43.79
20696;BME280;10507;52.754;13.040;2023-05-12T08:41:42;100578.69;;;26.28;44.96
20696;BME280;10507;52.754;13.040;2023-05-12T08:44:11;100413.84;;;25.72;43.89
20696;BME280;10507;52.754;13.040;2023-05-12T08:46:39;100582.28;;;25.98;45.47
20696;BME280;10507;52.754;13.040;2023-05-12T08:49:09;100507.03;;;25.23;45.58
20696;BME280;10507;52.754;13.040;2023-05-12T08:51:42;100349.75;;;24.81;43.92
20696;BME280;10507;52.754;13.040;2023-05-12T08:54:26;100352.91;;;24.37;44.39
20696;BME280;10507;52.754;13.040;2023-05-12T08:56:56;100383.78;;;24.21;45.12
20696;BME280;10507;52.754;13.040;2023-05-12T08:59:27;100354.16;;;24.01;45.00
20696;BME280;10507;52.754;13.040;2023-05-12T09:01:58;100300.59;;;23.67;44.74
20696;BME280;10507;52.754;13.040;2023-05-12T09:04:30;100378.78;;;23.42;46.62
20696;BME280;10507;52.754;13.040;2023-05-12T09:06:58;100250.28;;;22.88;45.01
20696;BME280;10507;52.754;13.040;2023-05-12T09:09:28;100274.94;;;22.78;44.67
20696;BME280;10507;52.754;13.040;2023-05-12T09:12:01;100374.16;;;22.92;45.99
20696;BME280;10507;52.754;13.040;2023-05-12T09:14:33;100491.94;;;23.20;47.39
20696;BME280;10507;52.754;13.040;2023-05-12T09:17:03;100366.28;;;23.15;44.72
20696;BME280;10507;52.754;13.040;2023-05-12T09:19:31;100397.66;;;23.36;44.55
20696;BME280;10507;52.754;13.040;2023-05-12T09:22:00;100331.03;;;23.14;44.47
20696;BME280;10507;52.754;13.040;2023-05-12T09:24:37;100342.75;;;23.06;45.03
20696;BME280;10507;52.754;13.040;2023-05-12T09:27:06;100427.63;;;23.36;44.67
20696;BME280;10507;52.754;13.040;2023-05-12T09:29:33;100418.00;;;23.58;43.59
20696;BME280;10507;52.754;13.040;2023-05-12T09:32:17;100385.47;;;23.64;43.22
20696;BME280;10507;52.754;13.040;2023-05-12T09:34:49;100344.03;;;23.36;43.57
20696;BME280;10507;52.754;13.040;2023-05-12T09:37:17;100315.47;;;22.98;44.28
20696;BME280;10507;52.754;13.040;2023-05-12T09:39:47;100372.75;;;23.14;44.22
20696;BME280;10507;52.754;13.040;2023-05-12T09:42:14;100295.13;;;23.10;43.28
20696;BME280;10507;52.754;13.040;2023-05-12T09:44:42;100338.72;;;23.18;43.67
20696;BME280;10507;52.754;13.040;2023-05-12T09:47:12;100420.84;;;23.40;44.23
20696;BME280;10507;52.754;13.040;2023-05-12T09:49:45;100482.78;;;23.72;44.40
20696;BME280;10507;52.754;13.040;2023-05-12T09:52:14;100264.81;;;23.13;42.74
20696;BME280;10507;52.754;13.040;2023-05-12T09:54:43;100312.16;;;22.70;44.69
20696;BME280;10507;52.754;13.040;2023-05-12T09:57:14;100352.03;;;22.95;44.00
20696;BME280;10507;52.754;13.040;2023-05-12T09:59:43;100394.84;;;23.11;44.38
20696;BME280;10507;52.754;13.040;2023-05-12T10:02:14;100427.25;;;23.22;44.54
20696;BME280;10507;52.754;13.040;2023-05-12T10:04:46;100371.59;;;23.25;43.52
20696;BME280;10507;52.754;13.040;2023-05-12T10:07:22;100323.84;;;23.04;43.37
20696;BME280;10507;52.754;13.040;2023-05-12T10:09:54;100331.22;;;23.20;43.02
20696;BME280;10507;52.754;13.040;2023-05-12T10:12:27;100287.75;;;23.02;42.93
20696;BME280;10507;52.754;13.040;2023-05-12T10:14:55;100393.88;;;23.20;43.73
20696;BME280;10507;52.754;13.040;2023-05-12T10:17:24;100316.75;;;23.20;42.86
20696;BME280;10507;52.754;13.040;2023-05-12T10:19:55;100349.78;;;23.17;43.35
20696;BME280;10507;52.754;13.040;2023-05-12T10:22:25;100364.09;;;23.19;43.63
20696;BME280;10507;52.754;13.040;2023-05-12T10:24:56;100403.31;;;23.34;43.54
20696;BME280;10507;52.754;13.040;2023-05-12T10:27:24;100395.97;;;23.35;43.30
20696;BME280;10507;52.754;13.040;2023-05-12T10:29:53;100347.09;;;23.25;43.35
20696;BME280;10507;52.754;13.040;2023-05-12T10:32:21;100373.44;;;23.24;43.39
20696;BME280;10507;52.754;13.040;2023-05-12T10:34:49;100280.63;;;23.01;42.95
20696;BME280;10507;52.754;13.040;2023-05-12T10:37:17;100376.47;;;23.13;43.52
20696;BME280;10507;52.754;13.040;2023-05-12T10:39:46;100246.84;;;22.78;42.67
20696;BME280;10507;52.754;13.040;2023-05-12T10:42:16;100447.47;;;23.12;45.23
20696;BME280;10507;52.754;13.040;2023-05-12T10:44:49;100355.38;;;23.07;43.24
20696;BME280;10507;52.754;13.040;2023-05-12T10:47:22;100309.75;;;23.09;42.29
20696;BME280;10507;52.754;13.040;2023-05-12T10:49:55;100403.94;;;23.28;43.58
20696;BME280;10507;52.754;13.040;2023-05-12T10:52:23;100361.91;;;23.31;42.83
20696;BME280;10507;52.754;13.040;2023-05-12T10:54:58;100257.78;;;22.94;42.24
20696;BME280;10507;52.754;13.040;2023-05-12T10:57:27;100218.06;;;22.67;42.64
20696;BME280;10507;52.754;13.040;2023-05-12T10:59:59;100311.31;;;22.77;43.69
20696;BME280;10507;52.754;13.040;2023-05-12T11:02:30;100317.25;;;22.73;43.78
20696;BME280;10507;52.754;13.040;2023-05-12T11:05:08;100444.81;;;22.94;45.51
20696;BME280;10507;52.754;13.040;2023-05-12T11:07:38;100356.72;;;23.03;43.77
20696;BME280;10507;52.754;13.040;2023-05-12T11:10:09;100350.59;;;23.01;43.66
20696;BME280;10507;52.754;13.040;2023-05-12T11:12:41;100415.31;;;23.15;44.26
20696;BME280;10507;52.754;13.040;2023-05-12T11:15:10;100430.66;;;23.24;44.15
20696;BME280;10507;52.754;13.040;2023-05-12T11:17:41;100497.47;;;23.37;44.71
20696;BME280;10507;52.754;13.040;2023-05-12T11:20:09;100447.59;;;23.36;43.66
20696;BME280;10507;52.754;13.040;2023-05-12T11:22:39;100442.69;;;23.56;43.58
20696;BME280;10507;52.754;13.040;2023-05-12T11:25:09;100323.06;;;23.29;42.17
20696;BME280;10507;52.754;13.040;2023-05-12T11:27:37;100412.50;;;23.50;42.74
20696;BME280;10507;52.754;13.040;2023-05-12T11:30:09;100336.19;;;23.33;42.43
20696;BME280;10507;52.754;13.040;2023-05-12T11:32:37;100333.63;;;23.23;42.28
20696;BME280;10507;52.754;13.040;2023-05-12T11:35:09;100222.00;;;22.73;42.46
20696;BME280;10507;52.754;13.040;2023-05-12T11:37:38;100328.53;;;22.86;43.35
20696;BME280;10507;52.754;13.040;2023-05-12T11:40:12;100321.22;;;22.87;42.69
20696;BME280;10507;52.754;13.040;2023-05-12T11:42:41;100241.59;;;22.93;41.31
20696;BME280;10507;52.754;13.040;2023-05-12T11:45:24;100296.03;;;22.84;42.54
20696;BME280;10507;52.754;13.040;2023-05-12T11:48:05;100292.59;;;22.74;42.67
20696;BME280;10507;52.754;13.040;2023-05-12T11:50:38;100368.63;;;23.02;42.64
20696;BME280;10507;52.754;13.040;2023-05-12T11:53:09;100381.03;;;23.04;43.09
20696;BME280;10507;52.754;13.040;2023-05-12T11:55:46;100274.44;;;22.91;41.68
20696;BME280;10507;52.754;13.040;2023-05-12T11:58:18;100314.41;;;22.82;42.46
20696;BME280;10507;52.754;13.040;2023-05-12T12:00:48;100307.59;;;22.78;42.30
20696;BME280;10507;52.754;13.040;2023-05-12T12:03:16;100313.72;;;22.89;42.11
20696;BME280;10507;52.754;13.040;2023-05-12T12:05:58;100237.63;;;22.62;42.22
20696;BME280;10507;52.754;13.040;2023-05-12T12:08:26;100333.75;;;22.71;43.10
20696;BME280;10507;52.754;13.040;2023-05-12T12:10:56;100290.53;;;22.68;42.66
20696;BME280;10507;52.754;13.040;2023-05-12T12:13:27;100395.09;;;22.92;43.35
20696;BME280;10507;52.754;13.040;2023-05-12T12:15:55;100300.75;;;22.74;42.43
20696;BME280;10507;52.754;13.040;2023-05-12T12:18:23;100390.34;;;22.94;43.14
20696;BME280;10507;52.754;13.040;2023-05-12T12:20:51;100327.72;;;22.94;42.07
20696;BME280;10507;52.754;13.040;2023-05-12T12:23:20;100247.91;;;22.85;41.20
20696;BME280;10507;52.754;13.040;2023-05-12T12:25:48;100217.72;;;22.70;41.08
20696;BME280;10507;52.754;13.040;2023-05-12T12:28:16;100287.69;;;22.86;41.21
20696;BME280;10507;52.754;13.040;2023-05-12T12:30:44;100339.19;;;23.06;41.13
20696;BME280;10507;52.754;13.040;2023-05-12T12:33:12;100343.28;;;23.10;41.53
20696;BME280;10507;52.754;13.040;2023-05-12T12:35:39;100370.00;;;23.06;42.43
20696;BME280;10507;52.754;13.040;2023-05-12T12:38:07;100370.34;;;23.11;42.00
20696;BME280;10507;52.754;13.040;2023-05-12T12:40:36;100337.66;;;23.11;41.49
20696;BME280;10507;52.754;13.040;2023-05-12T12:43:04;100372.56;;;23.08;42.38
20696;BME280;10507;52.754;13.040;2023-05-12T12:45:32;100364.41;;;23.16;42.09
20696;BME280;10507;52.754;13.040;2023-05-12T12:48:00;100423.53;;;23.32;42.78
20696;BME280;10507;52.754;13.040;2023-05-12T12:50:28;100392.16;;;23.19;42.54